Time;durP1;ratioP1;P1;durP2;ratioP2;P2;SDS_P1;SDS_P2;PMS_P1;PMS_P2;Temp;Humidity;BMP_temperature;BMP_pressure;BME280_temperature;BME280_humidity;BME280_pressure;Samples;Min_cycle;Max_cycle;Signal;HPM_P1;HPM_P2
2021/11/04 00:00:26;;;;;;;3.22;2.15;;;20.60;46.30;;;24.94;29.98;100102.47;5052672;28;20048;-12
2021/11/04 00:02:53;;;;;;;2.50;1.90;;;20.70;46.30;;;24.94;30.03;100097.13;5052823;28;20052;-12
2021/11/04 00:05:19;;;;;;;1.70;1.60;;;20.70;46.40;;;24.94;30.03;100100.66;5052833;28;20075;-12
2021/11/04 00:07:48;;;;;;;1.48;1.38;;;20.70;46.30;;;24.92;30.09;100102.59;5056170;28;20499;-12
2021/11/04 00:10:14;;;;;;;3.65;1.92;;;20.70;46.30;;;24.95;30.15;100099.66;5055917;28;20048;-12
2021/11/04 00:12:40;;;;;;;1.48;1.38;;;20.70;46.30;;;24.93;30.14;100090.09;5055859;28;20045;-12
2021/11/04 00:15:07;;;;;;;3.35;1.85;;;20.70;46.20;;;24.95;30.13;100098.81;5055812;28;20071;-12
2021/11/04 00:17:34;;;;;;;3.25;1.50;;;20.70;46.30;;;24.91;30.15;100092.91;5055689;28;20098;-11
2021/11/04 00:20:00;;;;;;;1.75;1.50;;;20.70;46.30;;;24.91;30.03;100087.56;5055667;28;20056;-12
2021/11/04 00:22:26;;;;;;;1.92;1.73;;;20.70;46.30;;;24.94;30.15;100098.00;5056327;28;20067;-12
2021/11/04 00:24:51;;;;;;;1.70;1.45;;;20.70;46.30;;;24.91;30.00;100089.41;5055676;28;20062;-12
2021/11/04 00:27:17;;;;;;;1.63;1.50;;;20.70;46.30;;;24.94;30.16;100099.78;5055736;28;20136;-12
2021/11/04 00:29:43;;;;;;;1.70;1.42;;;20.70;46.30;;;24.93;29.94;100100.81;5055591;28;20052;-11
2021/11/04 00:32:09;;;;;;;3.50;1.77;;;20.70;46.30;;;24.92;30.16;100097.25;5055543;28;20513;-12
2021/11/04 00:34:35;;;;;;;2.20;1.80;;;20.60;46.30;;;24.94;30.25;100097.13;5055881;28;20507;-12
2021/11/04 00:37:01;;;;;;;1.83;1.70;;;20.60;46.30;;;24.94;30.09;100108.69;5055659;28;20124;-11
2021/11/04 00:39:26;;;;;;;1.90;1.73;;;20.60;46.30;;;24.91;30.16;100098.25;5055728;28;20064;-11
2021/11/04 00:41:52;;;;;;;2.25;1.73;;;20.70;46.30;;;24.93;30.12;100095.44;5055548;28;20211;-12
2021/11/04 00:44:18;;;;;;;1.77;1.60;;;20.60;46.30;;;24.90;30.02;100085.88;5055775;28;20049;-12
2021/11/04 00:46:44;;;;;;;2.00;1.65;;;20.60;46.30;;;24.90;30.05;100085.88;5055491;28;20045;-14
2021/11/04 00:49:10;;;;;;;2.38;1.80;;;20.60;46.30;;;24.92;30.20;100091.06;5055550;28;20045;-12
2021/11/04 00:51:36;;;;;;;1.95;1.65;;;20.60;46.30;;;24.91;30.11;100090.25;5055374;28;20049;-12
2021/11/04 00:54:01;;;;;;;1.70;1.60;;;20.70;46.30;;;24.91;30.20;100090.25;5055170;28;20053;-12
2021/11/04 00:56:27;;;;;;;1.77;1.38;;;20.70;46.30;;;24.91;30.27;100090.25;5055213;28;20056;-13
2021/11/04 00:58:53;;;;;;;2.55;1.80;;;20.70;46.30;;;24.93;30.17;100093.63;5055632;28;20064;-11
2021/11/04 01:01:20;;;;;;;2.00;1.70;;;20.60;46.30;;;24.89;30.07;100086.00;5055104;28;20079;-12
2021/11/04 01:03:46;;;;;;;2.58;1.50;;;20.60;46.30;;;24.91;29.96;100092.09;5055188;28;20060;-12
2021/11/04 01:06:13;;;;;;;1.50;1.40;;;20.70;46.40;;;24.91;30.04;100087.56;5055054;28;20049;-12
2021/11/04 01:08:39;;;;;;;1.98;1.50;;;20.60;46.30;;;24.88;30.12;100071.78;5054972;28;20049;-12
2021/11/04 01:11:06;;;;;;;1.70;1.60;;;20.70;46.30;;;24.90;30.09;100075.16;5054924;28;20060;-12
2021/11/04 01:13:33;;;;;;;2.28;1.50;;;20.60;46.80;;;24.91;30.07;100081.38;5054938;28;20052;-12
2021/11/04 01:15:58;;;;;;;2.10;1.40;;;20.60;46.30;;;24.91;30.10;100081.38;5055458;28;20098;-12
2021/11/04 01:18:24;;;;;;;2.22;1.60;;;20.60;46.40;;;24.91;30.11;100086.72;5054373;28;20440;-11
2021/11/04 01:20:50;;;;;;;2.13;1.77;;;20.60;46.40;;;24.90;30.11;100083.19;5054877;28;20049;-11
2021/11/04 01:23:16;;;;;;;1.40;1.30;;;20.60;46.40;;;24.90;30.09;100077.00;5054895;28;20099;-12
2021/11/04 01:25:42;;;;;;;1.48;1.27;;;20.60;46.30;;;24.90;30.04;100072.50;5055113;28;20413;-12
2021/11/04 01:28:08;;;;;;;1.77;1.55;;;20.70;46.30;;;24.90;30.21;100075.16;5054865;28;20120;-11
2021/11/04 01:30:38;;;;;;;1.85;1.63;;;20.60;46.30;;;24.87;30.10;100070.09;5054542;28;20052;-12
2021/11/04 01:33:04;;;;;;;1.70;1.60;;;20.70;46.30;;;24.89;29.99;100073.50;5054656;28;20053;-12
2021/11/04 01:35:31;;;;;;;3.22;1.90;;;20.70;46.30;;;24.88;30.06;100074.47;5054640;28;20072;-12
2021/11/04 01:38:01;;;;;;;1.45;1.35;;;20.60;46.30;;;24.89;30.22;100070.81;5054703;28;20477;-12
2021/11/04 01:40:28;;;;;;;1.70;1.40;;;20.60;46.40;;;24.89;30.17;100065.47;5055297;28;20071;-12
2021/11/04 01:42:55;;;;;;;2.17;1.67;;;20.60;46.40;;;24.88;30.09;100071.78;5053312;28;20048;-12
2021/11/04 01:45:20;;;;;;;2.22;1.70;;;20.60;46.40;;;24.89;30.02;100078.84;5054504;28;20049;-12
2021/11/04 01:47:48;;;;;;;2.00;1.80;;;20.60;46.40;;;24.86;30.07;100072.91;5054737;28;20094;-12
2021/11/04 01:50:15;;;;;;;1.95;1.67;;;20.60;46.40;;;24.87;30.19;100080.78;5054321;28;20049;-12
2021/11/04 01:52:43;;;;;;;2.67;1.73;;;20.60;46.40;;;24.90;30.07;100083.19;5054544;28;20052;-12
2021/11/04 01:55:14;;;;;;;1.83;1.50;;;20.60;46.40;;;24.87;30.26;100071.94;5053054;28;20056;-12
2021/11/04 01:57:40;;;;;;;;;;;20.70;46.40;;;25.00;29.98;100071.66;5054849;28;20128;-12
2021/11/04 02:00:07;;;;;;;5.28;1.85;;;20.60;46.30;;;24.94;30.09;100073.06;5054282;28;19965;-12
2021/11/04 02:02:45;;;;;;;1.55;1.45;;;20.70;46.90;;;24.90;30.04;100077.84;5054445;28;20060;-12
2021/11/04 02:05:17;;;;;;;1.60;1.50;;;20.70;46.30;;;24.89;30.28;100076.16;5052990;28;20043;-12
2021/11/04 02:08:08;;;;;;;2.35;1.63;;;20.70;46.30;;;24.92;30.01;100080.38;5033293;28;20046;-12
2021/11/04 02:10:52;;;;;;;1.77;1.50;;;20.70;46.30;;;24.89;30.27;100077.97;5053423;28;20397;-12
2021/11/04 02:13:35;;;;;;;1.70;1.50;;;20.60;46.30;;;24.88;30.19;100071.78;5051648;28;20083;-12
2021/11/04 02:16:03;;;;;;;2.15;1.42;;;20.60;46.40;;;24.85;30.30;100065.88;5053157;28;20049;-12
2021/11/04 02:18:32;;;;;;;2.42;1.40;;;20.60;46.30;;;24.84;30.17;100065.06;5054097;28;20056;-12
2021/11/04 02:21:10;;;;;;;1.73;1.63;;;20.60;46.40;;;24.86;30.32;100063.06;5052724;28;20482;-12
2021/11/04 02:23:50;;;;;;;1.50;1.40;;;20.60;46.40;;;24.84;30.29;100058.84;5054097;28;20055;-11
2021/11/04 02:26:17;;;;;;;1.35;1.25;;;20.60;46.40;;;24.83;30.06;100057.16;5051212;28;20049;-12
2021/11/04 02:28:43;;;;;;;2.05;1.58;;;20.60;46.40;;;24.82;30.10;100052.78;5053508;28;20489;-12
2021/11/04 02:31:09;;;;;;;1.70;1.60;;;20.60;46.40;;;24.85;30.42;100057.88;5036178;28;20504;-11
2021/11/04 02:33:38;;;;;;;1.90;1.70;;;20.60;46.40;;;24.84;30.30;100048.16;5035889;28;20044;-11
2021/11/04 02:36:05;;;;;;;1.95;1.45;;;20.60;46.30;;;24.87;30.10;100053.22;5035934;28;20064;-12
2021/11/04 02:38:32;;;;;;;1.55;1.33;;;20.70;46.20;;;24.84;30.29;100046.34;5053643;28;20132;-11
2021/11/04 02:41:00;;;;;;;1.70;1.42;;;20.70;46.20;;;24.84;30.14;100040.13;5053940;28;20048;-12
2021/11/04 02:43:30;;;;;;;1.95;1.60;;;20.70;46.30;;;24.88;30.21;100041.53;5053896;28;20060;-11
2021/11/04 02:45:57;;;;;;;1.75;1.23;;;20.70;46.10;;;24.86;30.27;100041.69;5053622;28;20118;-12
2021/11/04 02:48:23;;;;;;;1.50;1.40;;;20.70;46.20;;;24.85;30.15;100045.34;5053787;28;20056;-12
2021/11/04 02:50:54;;;;;;;1.40;1.30;;;20.60;46.20;;;24.85;30.29;100028.44;5053484;28;20045;-12
2021/11/04 02:53:24;;;;;;;1.23;1.13;;;20.70;46.20;;;24.91;30.04;100036.75;5053879;28;20049;-12
2021/11/04 02:55:50;;;;;;;3.45;1.70;;;20.80;45.90;;;24.88;30.19;100029.00;5053478;28;20070;-12
2021/11/04 02:58:18;;;;;;;1.80;1.65;;;20.90;45.70;;;24.87;30.08;100019.28;5053315;28;20041;-12
2021/11/04 03:00:49;;;;;;;1.70;1.60;;;20.90;45.70;;;24.86;30.20;100025.66;5053366;28;20143;-12
2021/11/04 03:03:16;;;;;;;1.45;1.35;;;20.80;45.90;;;24.89;30.26;100029.84;5053427;28;20045;-12
2021/11/04 03:05:41;;;;;;;1.95;1.70;;;20.80;46.00;;;24.85;30.27;100023.94;5053227;28;20068;-12
2021/11/04 03:08:08;;;;;;;1.75;1.25;;;20.70;46.10;;;24.86;30.17;100028.31;5053188;28;20088;-12
2021/11/04 03:10:34;;;;;;;2.65;1.70;;;20.70;46.10;;;24.86;30.20;100031.00;5053178;28;20155;-12
2021/11/04 03:12:59;;;;;;;2.03;1.73;;;20.60;46.20;;;24.82;30.26;100028.72;5053084;28;20144;-12
2021/11/04 03:15:29;;;;;;;1.50;1.40;;;20.60;46.30;;;24.82;30.29;100023.38;5053366;28;20053;-11
2021/11/04 03:17:56;;;;;;;2.30;1.42;;;20.60;46.20;;;24.82;30.05;100020.72;5053362;28;20041;-12
2021/11/04 03:20:22;;;;;;;1.30;1.20;;;20.60;46.30;;;24.84;30.04;100032.09;5048507;28;20088;-12
2021/11/04 03:22:49;;;;;;;1.50;1.40;;;20.60;46.30;;;24.82;30.32;100026.06;5035165;28;20049;-12
2021/11/04 03:25:19;;;;;;;1.55;1.42;;;20.60;46.80;;;24.82;30.22;100034.91;5035041;28;20053;-11
2021/11/04 03:27:48;;;;;;;1.50;1.40;;;20.60;46.30;;;24.84;30.11;100035.63;5053139;28;20400;-12
2021/11/04 03:30:19;;;;;;;1.40;1.20;;;20.60;46.30;;;24.83;30.29;100027.75;5051495;28;20044;-12
2021/11/04 03:32:46;;;;;;;;;;;20.60;46.30;;;24.99;29.93;100025.34;5052293;28;20527;-12
2021/11/04 03:35:13;;;;;;;1.60;1.50;;;20.60;46.30;;;24.93;30.07;100033.94;5035057;28;19967;-11
2021/11/04 03:37:43;;;;;;;1.45;1.35;;;20.70;46.30;;;24.91;30.15;100033.25;5052870;28;20401;-12
2021/11/04 03:40:11;;;;;;;1.55;1.35;;;20.60;46.30;;;24.88;30.06;100028.19;5051989;28;20090;-12
2021/11/04 03:42:39;;;;;;;1.40;1.30;;;20.70;46.30;;;24.87;30.11;100027.31;5051511;28;20053;-12
2021/11/04 03:45:06;;;;;;;1.58;1.48;;;20.70;46.30;;;24.90;30.21;100040.41;5051441;28;20041;-12
2021/11/04 03:47:33;;;;;;;1.45;1.23;;;20.70;46.20;;;24.92;30.29;100042.94;5052365;28;20455;-11
2021/11/04 03:50:00;;;;;;;1.52;1.33;;;20.70;46.20;;;24.94;30.13;100052.53;5034978;28;20072;-11
2021/11/04 03:52:28;;;;;;;1.60;1.50;;;20.70;46.10;;;24.93;30.22;100053.50;5051869;28;20428;-12
2021/11/04 03:54:55;;;;;;;1.45;1.30;;;20.80;46.10;;;24.94;30.02;100055.19;5052561;28;20481;-12
2021/11/04 03:57:25;;;;;;;1.40;1.30;;;20.80;45.90;;;24.96;30.13;100044.38;5050998;28;20091;-11
2021/11/04 03:59:52;;;;;;;1.40;1.30;;;20.90;46.00;;;24.98;30.22;100045.06;5051225;28;20087;-11
2021/11/04 04:02:20;;;;;;;1.83;1.50;;;20.90;45.90;;;25.04;30.09;100040.97;5052747;28;20049;-12
2021/11/04 04:04:57;;;;;;;1.67;1.40;;;21.00;45.80;;;25.06;30.11;100041.66;5034541;28;20076;-12
2021/11/04 04:07:31;;;;;;;1.60;1.50;;;21.00;45.70;;;25.08;29.96;100051.25;5052450;28;20075;-12
2021/11/04 04:09:58;;;;;;;1.27;1.17;;;21.00;45.70;;;25.07;30.08;100041.53;5052330;28;20053;-12
2021/11/04 04:12:24;;;;;;;2.05;1.30;;;20.90;45.70;;;25.10;29.95;100051.94;5052236;28;20041;-12
2021/11/04 04:14:50;;;;;;;1.63;1.40;;;21.00;45.80;;;25.10;30.05;100035.91;5052244;28;20045;-11
2021/11/04 04:17:21;;;;;;;1.80;1.60;;;21.00;45.80;;;25.11;30.01;100031.41;5052524;28;20056;-12
2021/11/04 04:19:50;;;;;;;1.67;1.58;;;21.00;45.80;;;25.15;30.02;100040.81;5052223;28;20049;-12
2021/11/04 04:22:17;;;;;;;1.58;1.40;;;20.90;45.80;;;25.12;29.87;100031.25;5052287;28;20099;-12
2021/11/04 04:24:43;;;;;;;1.58;1.45;;;21.00;45.80;;;25.15;30.15;100032.81;5052817;28;20381;-11
2021/11/04 04:27:11;;;;;;;1.52;1.42;;;21.00;45.80;;;25.17;30.12;100035.34;5052140;28;20060;-12
2021/11/04 04:29:37;;;;;;;1.35;1.25;;;21.00;45.70;;;25.16;29.85;100029.16;5052077;28;20508;-12
2021/11/04 04:32:03;;;;;;;1.33;1.23;;;21.00;45.70;;;25.18;29.99;100029.00;5051965;28;20053;-12
2021/11/04 04:34:29;;;;;;;1.33;1.23;;;21.00;45.60;;;25.20;29.93;100033.22;5034065;28;20049;-11
2021/11/04 04:36:55;;;;;;;1.92;1.38;;;21.00;45.60;;;25.19;29.83;100031.50;5052017;28;20052;-12
2021/11/04 04:39:21;;;;;;;1.15;1.10;;;21.00;45.60;;;25.21;29.81;100034.91;5051876;28;20156;-11
2021/11/04 04:41:48;;;;;;;1.83;1.40;;;21.00;45.50;;;25.20;29.92;100037.72;5052064;28;20064;-11
2021/11/04 04:44:13;;;;;;;1.40;1.30;;;21.00;45.50;;;25.18;29.66;100029.00;5051967;28;20056;-12
2021/11/04 04:46:39;;;;;;;2.60;1.45;;;21.00;45.50;;;25.21;29.88;100031.38;5051844;28;20126;-12
2021/11/04 04:49:05;;;;;;;2.55;1.33;;;21.00;45.50;;;25.22;29.80;100033.91;5051703;28;20057;-12
2021/11/04 04:51:31;;;;;;;1.35;1.25;;;21.00;45.50;;;25.22;29.67;100022.38;5051133;28;20049;-11
2021/11/04 04:53:56;;;;;;;1.55;1.42;;;21.00;45.50;;;25.23;29.70;100030.25;5055222;28;20057;-12
2021/11/04 04:56:22;;;;;;;2.17;1.27;;;21.00;45.50;;;25.24;29.69;100036.44;5055235;28;20045;-12
2021/11/04 04:58:49;;;;;;;1.40;1.30;;;21.00;45.50;;;25.23;29.81;100032.09;5055415;28;20110;-12
2021/11/04 05:01:15;;;;;;;1.48;1.38;;;21.00;45.50;;;25.22;29.76;100030.41;5055270;28;20130;-12
2021/11/04 05:03:41;;;;;;;1.38;1.20;;;21.00;45.50;;;25.22;29.72;100035.75;5055159;28;20049;-12
2021/11/04 05:06:07;;;;;;;1.60;1.50;;;21.00;45.50;;;25.19;29.62;100042.22;5037339;28;20053;-11
2021/11/04 05:08:32;;;;;;;1.40;1.30;;;21.00;45.60;;;25.22;29.72;100051.81;5053704;28;20056;-12
2021/11/04 05:10:58;;;;;;;1.40;1.10;;;20.90;46.10;;;25.19;29.73;100036.03;5055006;28;20041;-12
2021/11/04 05:13:24;;;;;;;1.35;1.25;;;21.00;45.60;;;25.20;29.58;100046.59;5053730;28;20107;-11
2021/11/04 05:15:50;;;;;;;1.30;1.17;;;20.90;45.50;;;25.16;29.73;100047.88;5037719;28;20103;-12
2021/11/04 05:18:15;;;;;;;1.42;1.33;;;20.90;45.60;;;25.19;29.62;100052.91;5054771;28;20045;-11
2021/11/04 05:20:41;;;;;;;1.65;1.48;;;20.90;45.60;;;25.15;29.72;100049.69;5054789;28;20127;-12
2021/11/04 05:23:07;;;;;;;2.35;1.67;;;20.90;45.60;;;25.18;29.62;100061.94;5054923;28;20056;-12
2021/11/04 05:25:33;;;;;;;1.63;1.48;;;20.90;45.60;;;25.17;29.79;100057.56;5054841;28;20405;-12
2021/11/04 05:27:59;;;;;;;1.42;1.33;;;21.00;45.70;;;25.17;29.85;100060.25;5054822;28;20401;-12
2021/11/04 05:30:25;;;;;;;1.40;1.30;;;20.90;45.50;;;25.18;29.73;100061.94;5054688;28;20045;-12
2021/11/04 05:32:51;;;;;;;2.55;1.30;;;20.90;45.60;;;25.16;29.70;100050.56;5054612;28;20045;-12
2021/11/04 05:35:18;;;;;;;2.05;1.25;;;20.90;45.70;;;25.18;29.71;100064.63;5036803;28;20095;-12
2021/11/04 05:37:45;;;;;;;1.52;1.10;;;20.90;45.70;;;25.18;29.94;100061.94;5054559;28;20489;-12
2021/11/04 05:40:11;;;;;;;1.20;1.10;;;20.90;46.20;;;25.15;29.65;100056.88;5054372;28;20049;-12
2021/11/04 05:42:38;;;;;;;1.42;1.33;;;20.90;45.70;;;25.17;29.65;100062.91;5054794;28;20468;-11
2021/11/04 05:45:05;;;;;;;1.23;1.20;;;20.90;45.70;;;25.17;29.77;100060.25;5054481;28;20041;-12
2021/11/04 05:47:32;;;;;;;1.40;1.30;;;21.00;45.70;;;25.18;29.75;100055.75;5054523;28;20045;-11
2021/11/04 05:49:57;;;;;;;1.40;1.30;;;21.00;45.60;;;25.18;29.68;100059.28;5054416;28;20091;-12
2021/11/04 05:52:23;;;;;;;1.35;1.20;;;21.00;45.70;;;25.21;29.87;100067.03;5054391;28;20409;-11
2021/11/04 05:54:52;;;;;;;1.65;1.45;;;21.00;45.70;;;25.22;29.78;100073.19;5054610;28;20049;-11
2021/11/04 05:57:17;;;;;;;1.35;1.20;;;20.90;45.70;;;25.18;29.71;100067.28;5054354;28;20114;-12
2021/11/04 05:59:43;;;;;;;1.30;1.20;;;20.90;45.70;;;25.20;29.62;100076.03;5049709;28;20054;-12
2021/11/04 06:02:09;;;;;;;1.25;1.15;;;21.00;45.70;;;25.20;29.66;100073.34;5054752;28;20041;-11
2021/11/04 06:04:36;;;;;;;1.40;1.30;;;21.00;45.80;;;25.20;29.66;100081.38;5053674;28;20098;-12
2021/11/04 06:07:05;;;;;;;1.58;1.48;;;20.90;45.70;;;25.19;29.63;100079.66;5054286;28;20048;-11
2021/11/04 06:09:33;;;;;;;1.45;1.35;;;20.90;45.70;;;25.15;29.78;100071.09;5054069;28;20057;-11
2021/11/04 06:11:59;;;;;;;1.60;1.48;;;20.90;45.70;;;25.16;29.81;100077.31;5054090;28;20041;-11
2021/11/04 06:14:25;;;;;;;1.30;1.20;;;20.90;45.70;;;25.19;29.86;100087.69;5054088;28;20049;-12
2021/11/04 06:16:52;;;;;;;1.00;1.00;;;20.90;45.70;;;25.17;29.78;100091.50;5054089;28;20060;-12
2021/11/04 06:19:20;;;;;;;1.73;1.30;;;20.90;45.70;;;25.16;29.80;100082.66;5034692;28;20188;-11
2021/11/04 06:21:48;;;;;;;1.52;1.38;;;20.90;45.80;;;25.16;29.76;100090.69;5054017;28;20045;-12
2021/11/04 06:24:13;;;;;;;1.17;1.05;;;20.90;45.80;;;25.15;29.71;100088.97;5054260;28;20051;-12
2021/11/04 06:26:39;;;;;;;2.83;1.60;;;20.90;45.80;;;25.14;29.80;100092.63;5053653;28;20049;-12
2021/11/04 06:29:05;;;;;;;1.58;1.48;;;20.90;45.80;;;25.14;29.80;100100.66;5053444;28;20138;-12
2021/11/04 06:31:31;;;;;;;1.98;1.50;;;20.90;45.80;;;25.14;29.83;100097.97;5053707;28;20072;-12
2021/11/04 06:33:57;;;;;;;1.10;1.00;;;20.90;45.80;;;25.15;30.00;100097.84;5053394;28;20057;-11
2021/11/04 06:36:24;;;;;;;1.40;1.30;;;20.90;45.80;;;25.15;29.78;100103.19;5053424;28;20053;-11
2021/11/04 06:38:51;;;;;;;1.33;1.23;;;20.90;45.80;;;25.12;29.81;100090.09;5053294;28;20049;-12
2021/11/04 06:41:17;;;;;;;1.92;1.27;;;20.90;45.80;;;25.13;29.87;100094.47;5053911;28;20052;-13
2021/11/04 06:43:44;;;;;;;1.67;1.30;;;20.90;45.80;;;25.15;30.01;100105.88;5053614;28;20056;-13
2021/11/04 06:46:13;;;;;;;1.48;1.38;;;20.90;45.80;;;25.14;29.86;100093.50;5053608;28;20053;-13
2021/11/04 06:48:52;;;;;;;2.13;1.10;;;20.90;45.80;;;25.14;29.84;100092.63;5053564;28;20053;-13
2021/11/04 06:51:23;;;;;;;1.25;1.15;;;20.90;45.80;;;25.12;29.76;100098.13;5034148;28;20545;-10
2021/11/04 06:53:54;;;;;;;2.47;1.02;;;20.90;45.90;;;25.20;29.98;100100.09;5053236;28;20049;-10
2021/11/04 06:56:22;;;;;;;3.20;1.40;;;21.00;45.90;;;25.23;30.15;100104.34;5053018;28;20064;-11
2021/11/04 06:58:52;;;;;;;1.90;1.23;;;20.90;45.90;;;25.21;29.78;100103.59;5053392;28;20061;-10
2021/11/04 07:01:21;;;;;;;3.55;1.27;;;20.90;45.90;;;25.20;29.91;100097.41;5053340;28;20061;-10
2021/11/04 07:04:09;;;;;;;2.65;1.40;;;20.90;46.00;;;25.19;29.98;100101.06;5053294;28;20139;-10
2021/11/04 07:06:44;;;;;;;1.85;1.35;;;20.90;46.10;;;25.19;29.98;100098.41;5052802;28;20170;-10
2021/11/04 07:09:10;;;;;;;1.65;1.35;;;20.90;46.10;;;25.15;29.81;100097.00;5034290;28;20504;-10
2021/11/04 07:11:36;;;;;;;3.60;1.38;;;20.90;46.10;;;25.14;29.97;100104.19;5052812;28;20053;-10
2021/11/04 07:14:03;;;;;;;1.70;1.25;;;20.90;46.10;;;25.13;30.10;100094.47;5052851;28;20421;-10
2021/11/04 07:16:29;;;;;;;2.08;1.02;;;20.90;46.10;;;25.14;29.90;100096.16;5051818;28;20053;-10
2021/11/04 07:18:58;;;;;;;1.55;1.33;;;20.90;46.10;;;25.17;29.91;100096.88;5052989;28;20053;-10
2021/11/04 07:21:43;;;;;;;1.73;1.48;;;20.90;46.10;;;25.15;30.03;100097.00;5052764;28;20060;-10
2021/11/04 07:24:22;;;;;;;1.35;1.25;;;20.90;46.10;;;25.17;30.04;100103.06;5052679;28;20044;-10
2021/11/04 07:26:53;;;;;;;1.98;1.42;;;20.90;46.10;;;25.14;30.11;100098.84;5051762;28;20049;-11
2021/11/04 07:29:31;;;;;;;1.63;1.40;;;20.90;46.10;;;25.17;30.14;100100.38;5047560;28;20050;-10
2021/11/04 07:31:57;;;;;;;1.95;1.20;;;20.90;46.10;;;25.18;29.85;100095.88;5051474;28;20057;-10
2021/11/04 07:34:25;;;;;;;1.20;1.00;;;20.90;46.00;;;25.16;29.93;100088.00;5052823;28;20049;-10
2021/11/04 07:36:54;;;;;;;1.77;1.40;;;20.90;46.00;;;25.17;29.93;100086.16;5052128;28;20064;-10
2021/11/04 07:39:20;;;;;;;1.48;1.17;;;20.90;46.00;;;25.18;30.01;100087.88;5034831;28;20051;-10
2021/11/04 07:41:49;;;;;;;1.30;1.20;;;20.90;46.00;;;25.14;30.09;100074.75;5053280;28;20090;-10
2021/11/04 07:44:15;;;;;;;1.40;1.27;;;20.90;46.00;;;25.15;29.91;100080.94;5053218;28;20055;-10
2021/11/04 07:46:40;;;;;;;1.20;1.10;;;20.90;46.10;;;25.17;30.02;100089.66;5052525;28;20057;-10
2021/11/04 07:49:06;;;;;;;1.52;1.27;;;20.90;46.10;;;25.18;30.12;100088.69;5034379;28;20053;-10
2021/11/04 07:51:35;;;;;;;1.77;1.23;;;20.90;46.00;;;25.16;30.01;100079.97;5052634;28;20052;-10
2021/11/04 07:54:01;;;;;;;1.48;1.17;;;20.90;46.00;;;25.20;29.91;100086.72;5029923;28;20076;-10
2021/11/04 07:56:27;;;;;;;1.90;1.60;;;20.90;46.10;;;25.18;30.03;100075.31;5051365;28;20049;-10
2021/11/04 07:58:52;;;;;;;1.70;1.50;;;20.90;46.10;;;25.20;30.10;100072.50;5052469;28;20059;-10
2021/11/04 08:01:18;;;;;;;1.25;1.05;;;20.90;46.10;;;25.18;29.98;100074.50;5052279;28;20057;-10
2021/11/04 08:03:44;;;;;;;1.48;1.38;;;20.90;46.10;;;25.20;29.98;100072.50;5034737;28;20374;-10
2021/11/04 08:06:10;;;;;;;1.27;1.20;;;20.90;46.00;;;25.17;30.06;100065.59;5052335;28;20056;-10
2021/11/04 08:08:36;;;;;;;2.05;1.63;;;21.00;46.10;;;25.21;29.91;100068.81;5052445;28;20049;-10
2021/11/04 08:11:02;;;;;;;1.50;1.40;;;21.00;46.10;;;25.20;30.10;100067.16;5052282;28;20102;-10
2021/11/04 08:13:28;;;;;;;1.60;1.30;;;21.00;46.10;;;25.19;30.10;100073.47;5052345;28;20049;-10
2021/11/04 08:15:54;;;;;;;1.50;1.30;;;20.90;46.00;;;25.21;29.95;100076.84;5052205;28;20052;-10
2021/11/04 08:18:20;;;;;;;1.80;1.30;;;20.90;46.00;;;25.21;30.07;100080.41;5050260;28;20131;-10
2021/11/04 08:20:45;;;;;;;1.52;1.20;;;21.00;46.10;;;25.20;30.08;100084.03;5052032;28;20061;-10
2021/11/04 08:23:14;;;;;;;1.27;1.17;;;20.90;46.00;;;25.22;29.99;100078.56;5052253;28;20412;-10
2021/11/04 08:25:43;;;;;;;1.08;0.98;;;21.00;46.00;;;25.22;29.92;100074.03;5052263;28;20049;-10
2021/11/04 08:28:10;;;;;;;1.65;1.30;;;21.00;46.00;;;25.22;29.95;100074.03;5055267;28;20102;-10
2021/11/04 08:30:36;;;;;;;1.40;1.15;;;21.00;46.00;;;25.25;30.05;100081.78;5055681;28;20053;-10
2021/11/04 08:33:03;;;;;;;1.45;1.02;;;21.00;46.00;;;25.23;30.00;100075.75;5055493;28;20070;-10
2021/11/04 08:35:29;;;;;;;2.00;1.15;;;21.00;46.00;;;25.24;29.99;100077.44;5055600;28;20404;-10
2021/11/04 08:37:55;;;;;;;3.00;1.40;;;21.00;46.00;;;25.27;30.04;100076.31;5055550;28;20053;-10
2021/11/04 08:40:21;;;;;;;1.58;1.17;;;21.00;46.00;;;25.24;30.05;100071.22;5055498;28;20045;-10
2021/11/04 08:42:47;;;;;;;1.30;1.20;;;21.00;45.90;;;25.27;29.87;100077.16;5055559;28;20080;-10
2021/11/04 08:45:14;;;;;;;3.22;1.25;;;21.00;45.90;;;25.27;29.88;100071.81;5055479;28;20512;-10
2021/11/04 08:47:40;;;;;;;1.17;1.08;;;21.00;45.90;;;25.27;29.93;100070.97;5055194;28;20072;-11
2021/11/04 08:50:10;;;;;;;2.28;1.58;;;21.10;46.40;;;25.30;30.04;100071.53;5055327;28;20044;-10
2021/11/04 08:52:37;;;;;;;1.42;1.20;;;21.10;45.80;;;25.30;29.79;100070.69;5055510;28;20048;-11
2021/11/04 08:55:08;;;;;;;1.27;1.17;;;21.10;45.80;;;25.32;29.73;100069.53;5055753;28;20045;-10
2021/11/04 08:57:38;;;;;;;1.63;1.30;;;21.10;45.80;;;25.31;29.88;100067.03;5055240;28;20099;-10
2021/11/04 09:00:08;;;;;;;1.58;1.48;;;21.10;45.80;;;25.31;29.86;100075.91;5055078;28;20137;-10
2021/11/04 09:02:34;;;;;;;1.08;1.00;;;21.10;45.80;;;25.35;29.91;100079.13;5052132;28;20124;-10
2021/11/04 09:05:50;;;;;;;1.98;1.63;;;21.10;45.70;;;25.40;29.88;100071.53;5053028;28;20051;-10
2021/11/04 09:08:30;;;;;;;2.85;1.40;;;21.10;45.70;;;25.29;29.91;100069.88;5071289;28;20059;-10
2021/11/04 09:11:12;;;;;;;1.30;1.20;;;21.10;45.70;;;25.28;30.00;100064.66;5072947;28;20059;-10
2021/11/04 09:13:46;;;;;;;2.17;1.52;;;21.10;45.70;;;25.28;29.95;100067.31;5036637;28;20087;-11
2021/11/04 09:16:18;;;;;;;2.85;1.48;;;21.10;45.60;;;25.31;29.95;100069.72;5055039;28;20059;-10
2021/11/04 09:18:47;;;;;;;1.52;1.40;;;21.20;45.70;;;25.29;29.97;100058.28;5053899;28;20052;-10
2021/11/04 09:21:18;;;;;;;2.72;1.45;;;21.20;45.70;;;25.33;29.95;100068.56;5071277;28;20049;-10
2021/11/04 09:23:47;;;;;;;1.48;1.20;;;21.20;45.60;;;25.33;29.79;100057.88;5074312;28;20049;-10
2021/11/04 09:26:13;;;;;;;1.30;1.20;;;21.20;45.60;;;25.39;29.87;100061.78;5074674;28;20072;-10
2021/11/04 09:28:39;;;;;;;1.95;1.50;;;21.20;45.50;;;25.42;29.80;100060.69;5074534;28;20071;-10
2021/11/04 09:31:08;;;;;;;1.55;1.27;;;21.20;45.50;;;25.43;29.87;100063.22;5075240;28;20056;-10
2021/11/04 09:33:33;;;;;;;1.98;1.52;;;21.30;45.50;;;25.46;29.66;100059.38;5071981;28;20049;-8
2021/11/04 09:35:59;;;;;;;1.35;1.25;;;21.30;45.50;;;25.45;29.62;100050.53;5074706;28;20463;-8
2021/11/04 09:38:26;;;;;;;1.52;1.42;;;21.30;45.50;;;25.48;29.63;100054.75;5068324;28;20088;-8
2021/11/04 09:40:53;;;;;;;1.73;1.10;;;21.30;45.50;;;25.50;29.62;100050.09;5065356;28;20064;-8
2021/11/04 09:43:19;;;;;;;1.45;1.23;;;21.30;45.50;;;25.50;29.69;100036.72;5074465;28;20071;-8
2021/11/04 09:45:45;;;;;;;1.30;1.20;;;21.30;45.50;;;25.52;29.67;100045.44;5059338;28;20053;-8
2021/11/04 09:48:11;;;;;;;1.10;1.00;;;21.30;45.50;;;25.55;29.60;100050.50;5054348;28;20045;-8
2021/11/04 09:50:37;;;;;;;4.38;1.30;;;21.30;45.60;;;25.57;29.70;100048.53;5054518;28;20049;-8
2021/11/04 09:53:03;;;;;;;2.13;1.20;;;21.40;45.50;;;25.54;29.62;100046.13;5054191;28;20136;-8
2021/11/04 09:55:30;;;;;;;1.77;1.40;;;21.40;45.50;;;25.55;29.61;100044.31;5054231;28;20060;-8
2021/11/04 09:58:00;;;;;;;1.60;1.50;;;21.30;45.50;;;25.52;29.64;100038.25;5054291;28;20565;-9
2021/11/04 10:00:35;;;;;;;2.53;0.93;;;21.30;45.50;;;25.60;29.57;100040.22;5036782;28;20041;-8
2021/11/04 10:03:13;;;;;;;1.85;1.65;;;21.30;45.60;;;25.52;29.79;100045.44;5054182;28;20071;-8
2021/11/04 10:05:52;;;;;;;2.65;1.75;;;21.30;45.60;;;25.52;29.83;100040.91;5054209;28;20049;-9
2021/11/04 10:08:37;;;;;;;1.88;1.20;;;21.30;45.60;;;25.55;29.74;100042.47;5052839;28;20053;-9
2021/11/04 10:11:29;;;;;;;2.58;1.65;;;21.30;45.70;;;25.49;29.73;100032.34;5056261;28;20049;-10
2021/11/04 10:14:16;;;;;;;2.37;0.80;;;21.30;45.60;;;25.52;29.60;100038.25;5052882;28;20481;-9
2021/11/04 10:16:42;;;;;;;4.03;1.80;;;21.30;45.60;;;25.46;29.73;100036.16;5054283;28;20408;-9